createdAt,value
2019-05-06T00:01:10.289Z,92874.47
2019-05-06T00:03:43.544Z,92880.91
2019-05-06T00:06:17.210Z,92867.41
2019-05-06T00:08:50.228Z,92873.56
2019-05-06T00:11:23.891Z,92875.48
2019-05-06T00:13:56.991Z,92870.39
2019-05-06T00:16:30.409Z,92868.80
2019-05-06T00:19:04.758Z,92869.59
2019-05-06T00:21:37.889Z,92871.27
2019-05-06T00:24:11.429Z,92864.06
2019-05-06T00:26:48.949Z,92872.71
2019-05-06T00:29:24.256Z,92866.08
2019-05-06T00:31:57.336Z,92873.89
2019-05-06T00:34:31.369Z,92881.39
2019-05-06T00:37:04.370Z,92873.16
2019-05-06T00:39:44.441Z,92877.97
2019-05-06T00:42:24.178Z,92874.95
2019-05-06T00:44:56.789Z,92872.69
2019-05-06T00:47:29.888Z,92868.45
2019-05-06T00:50:04.264Z,92872.69
2019-05-06T00:52:38.570Z,92869.91
2019-05-06T00:55:13.572Z,92867.17
2019-05-06T00:57:46.377Z,92878.02
2019-05-06T01:00:20.089Z,92881.65
2019-05-06T01:02:54.293Z,92878.07
2019-05-06T01:05:28.628Z,92875.55
2019-05-06T01:08:01.511Z,92873.51
2019-05-06T01:10:34.871Z,92882.89
2019-05-06T01:13:09.450Z,92885.27
2019-05-06T01:15:44.030Z,92883.01
2019-05-06T01:18:17.290Z,92879.63
2019-05-06T01:20:54.019Z,92882.72
2019-05-06T01:23:26.440Z,92883.35
2019-05-06T01:25:59.307Z,92874.48
2019-05-06T01:28:34.120Z,92880.72
2019-05-06T01:31:07.329Z,92880.27
2019-05-06T01:33:40.311Z,92876.57
2019-05-06T01:36:14.168Z,92881.95
2019-05-06T01:38:47.116Z,92874.20
2019-05-06T01:41:19.817Z,92872.78
2019-05-06T01:43:54.595Z,92875.45
2019-05-06T01:46:27.508Z,92874.33
2019-05-06T01:49:00.969Z,92883.80
2019-05-06T01:51:34.961Z,92875.82
2019-05-06T01:54:08.950Z,92885.96
2019-05-06T01:56:44.181Z,92889.86
2019-05-06T01:59:16.836Z,92895.22
2019-05-06T02:01:58.003Z,92894.95
2019-05-06T02:04:25.869Z,92892.00
2019-05-06T02:06:58.869Z,92898.25
2019-05-06T02:09:34.019Z,92903.84
2019-05-06T02:12:06.631Z,92886.23
2019-05-06T02:14:39.837Z,92895.07
2019-05-06T02:17:14.421Z,92893.42
2019-05-06T02:19:47.517Z,92893.42
2019-05-06T02:22:24.669Z,92891.63
2019-05-06T02:25:11.389Z,92879.58
2019-05-06T02:27:44.756Z,92890.63
2019-05-06T02:30:36.511Z,92898.97
2019-05-06T02:33:15.434Z,92888.91
2019-05-06T02:36:06.700Z,92888.12
2019-05-06T02:38:47.962Z,92881.20
2019-05-06T02:41:14.663Z,92884.44
2019-05-06T02:43:47.871Z,92882.23
2019-05-06T02:46:23.540Z,92888.02
2019-05-06T02:49:00.179Z,92898.87
2019-05-06T02:51:33.480Z,92878.45
2019-05-06T02:54:06.869Z,92889.05
2019-05-06T02:56:40.072Z,92884.88
2019-05-06T02:59:13.150Z,92890.23
2019-05-06T03:01:46.699Z,92881.52
2019-05-06T03:04:20.151Z,92887.66
2019-05-06T03:06:53.911Z,92883.09
2019-05-06T03:09:26.850Z,92878.29
2019-05-06T03:12:03.382Z,92872.81
2019-05-06T03:14:34.964Z,92873.66
2019-05-06T03:17:08.310Z,92871.47
2019-05-06T03:19:45.735Z,92875.58
2019-05-06T03:22:19.249Z,92869.30
2019-05-06T03:24:54.608Z,92868.12
2019-05-06T03:27:28.670Z,92861.92
2019-05-06T03:30:04.140Z,92874.08
2019-05-06T03:32:48.504Z,92875.77
2019-05-06T03:35:27.347Z,92868.99
2019-05-06T03:37:45.914Z,92871.83
2019-05-06T03:40:19.049Z,92875.45
2019-05-06T03:42:53.952Z,92885.75
2019-05-06T03:45:28.050Z,92877.62
2019-05-06T03:48:18.754Z,92891.19
2019-05-06T03:50:55.617Z,92893.08
2019-05-06T03:53:27.994Z,92894.73
2019-05-06T03:56:03.394Z,92887.73
2019-05-06T03:58:36.913Z,92890.02
2019-05-06T04:01:12.931Z,92890.39
2019-05-06T04:03:51.506Z,92891.09
2019-05-06T04:06:19.170Z,92891.36
2019-05-06T04:08:52.879Z,92899.98
2019-05-06T04:11:27.369Z,92897.45
2019-05-06T04:14:02.843Z,92893.31
2019-05-06T04:16:36.739Z,92903.09
2019-05-06T04:19:23.721Z,92909.46
2019-05-06T04:21:58.488Z,92901.16
2019-05-06T04:24:48.109Z,92915.83
2019-05-06T04:27:22.819Z,92912.63
2019-05-06T04:29:55.914Z,92925.67
2019-05-06T04:32:29.568Z,92921.38
2019-05-06T04:35:04.462Z,92925.89
2019-05-06T04:37:37.602Z,92933.05
2019-05-06T04:40:12.960Z,92935.84
2019-05-06T04:42:46.037Z,92940.27
2019-05-06T04:45:18.973Z,92926.75
2019-05-06T04:47:53.777Z,92935.73
2019-05-06T04:50:26.762Z,92930.73
2019-05-06T04:53:06.075Z,92925.80
2019-05-06T04:55:43.321Z,92934.14
2019-05-06T04:58:16.671Z,92929.73
2019-05-06T05:00:52.797Z,92933.05
2019-05-06T05:03:24.338Z,92933.11
2019-05-06T05:05:57.430Z,92937.05
2019-05-06T05:08:39.399Z,92943.62
2019-05-06T05:11:15.977Z,92935.92
2019-05-06T05:13:56.230Z,92940.76
2019-05-06T05:16:46.311Z,92946.77
2019-05-06T05:19:19.228Z,92951.52
2019-05-06T05:21:55.369Z,92958.79
2019-05-06T05:24:28.869Z,92954.34
2019-05-06T05:27:03.116Z,92951.33
2019-05-06T05:29:36.309Z,92950.02
2019-05-06T05:32:09.336Z,92951.09
2019-05-06T05:34:43.609Z,92945.73
2019-05-06T05:37:17.588Z,92941.81
2019-05-06T05:39:51.980Z,92944.78
2019-05-06T05:42:27.169Z,92949.88
2019-05-06T05:45:02.700Z,92946.91
2019-05-06T05:47:35.130Z,92944.72
2019-05-06T05:50:09.597Z,92955.77
2019-05-06T05:52:42.627Z,92948.67
2019-05-06T05:55:15.517Z,92944.32
2019-05-06T05:57:48.569Z,92939.00
2019-05-06T06:00:23.010Z,92951.86
2019-05-06T06:02:56.018Z,92950.92
2019-05-06T06:05:28.950Z,92947.34
2019-05-06T06:08:02.994Z,92957.21
2019-05-06T06:10:43.618Z,92958.37
2019-05-06T06:13:17.029Z,92960.73
2019-05-06T06:15:52.159Z,92961.02
2019-05-06T06:18:43.389Z,92968.06
2019-05-06T06:21:28.055Z,92960.09
2019-05-06T06:24:02.857Z,92957.27
2019-05-06T06:26:36.148Z,92954.12
2019-05-06T06:29:09.048Z,92958.16
2019-05-06T06:31:46.228Z,92963.76
2019-05-06T06:34:22.312Z,92962.11
2019-05-06T06:36:55.095Z,92962.53
2019-05-06T06:39:32.868Z,92967.80
2019-05-06T06:42:05.970Z,92959.09
2019-05-06T06:44:39.359Z,92952.77
2019-05-06T06:47:13.098Z,92971.49
2019-05-06T06:49:46.457Z,92956.17
2019-05-06T06:52:19.335Z,92974.80
2019-05-06T06:54:52.786Z,92972.63
2019-05-06T06:57:36.495Z,92969.33
2019-05-06T07:00:27.477Z,92964.22
2019-05-06T07:03:12.333Z,92963.55
2019-05-06T07:05:53.392Z,92964.66
2019-05-06T07:08:34.858Z,92965.38
2019-05-06T07:11:02.188Z,92967.46
2019-05-06T07:13:35.668Z,92966.99
2019-05-06T07:16:08.817Z,92958.05
2019-05-06T07:18:42.719Z,92955.79
2019-05-06T07:21:22.523Z,92961.03
2019-05-06T07:23:55.309Z,92966.56
2019-05-06T07:26:31.695Z,92963.56
2019-05-06T07:29:15.311Z,92958.56
2019-05-06T07:31:38.918Z,92960.92
2019-05-06T07:34:12.173Z,92964.22
2019-05-06T07:36:45.298Z,92969.75
2019-05-06T07:39:18.730Z,92959.18
2019-05-06T07:41:53.506Z,92972.39
2019-05-06T07:44:27.408Z,92967.38
2019-05-06T07:47:03.520Z,92975.81
2019-05-06T07:49:36.868Z,92973.14
2019-05-06T07:52:12.217Z,92977.92
2019-05-06T07:54:44.429Z,92976.57
2019-05-06T07:57:17.391Z,92981.05
2019-05-06T07:59:52.374Z,92987.15
2019-05-06T08:02:26.191Z,92993.20
2019-05-06T08:04:59.289Z,92985.33
2019-05-06T08:07:33.240Z,92985.05
2019-05-06T08:10:06.309Z,92983.95
2019-05-06T08:12:39.469Z,92988.47
2019-05-06T08:15:12.769Z,92990.08
2019-05-06T08:17:46.569Z,92993.33
2019-05-06T08:20:22.000Z,92994.89
2019-05-06T08:22:58.650Z,92999.91
2019-05-06T08:25:33.370Z,92994.89
2019-05-06T08:28:06.435Z,92996.22
2019-05-06T08:30:39.571Z,92998.86
2019-05-06T08:33:13.008Z,93004.13
2019-05-06T08:35:46.192Z,93008.34
2019-05-06T08:38:19.598Z,93002.00
2019-05-06T08:40:52.681Z,92996.44
2019-05-06T08:43:26.391Z,92997.52
2019-05-06T08:46:03.058Z,93002.73
2019-05-06T08:48:33.757Z,93011.18
2019-05-06T08:51:09.181Z,93011.42
2019-05-06T08:53:44.069Z,93010.32
2019-05-06T08:56:18.530Z,93014.95
2019-05-06T08:58:52.867Z,93016.79
2019-05-06T09:01:36.358Z,93015.74
2019-05-06T09:04:15.307Z,93020.23
2019-05-06T09:06:44.372Z,93024.16
2019-05-06T09:09:17.269Z,93030.45
2019-05-06T09:11:50.189Z,93030.98
2019-05-06T09:14:23.921Z,93031.31
2019-05-06T09:16:57.049Z,93032.07
2019-05-06T09:19:30.007Z,93033.09
2019-05-06T09:22:02.886Z,93044.21
2019-05-06T09:24:35.991Z,93038.27
2019-05-06T09:27:16.468Z,93045.53
2019-05-06T09:29:52.208Z,93040.13
2019-05-06T09:32:27.561Z,93047.41
2019-05-06T09:35:02.912Z,93053.41
2019-05-06T09:37:35.575Z,93054.70
2019-05-06T09:40:08.397Z,93063.50
2019-05-06T09:42:42.570Z,93060.61
2019-05-06T09:45:16.128Z,93056.06
2019-05-06T09:47:54.908Z,93060.06
2019-05-06T09:50:28.130Z,93058.73
2019-05-06T09:53:02.457Z,93062.19
2019-05-06T09:55:42.988Z,93068.51
2019-05-06T09:58:15.639Z,93073.02
2019-05-06T10:00:50.058Z,93071.39
2019-05-06T10:03:23.139Z,93078.78
2019-05-06T10:05:56.151Z,93081.97
2019-05-06T10:08:29.001Z,93085.41
2019-05-06T10:11:03.230Z,93089.38
2019-05-06T10:13:36.469Z,93085.66
2019-05-06T10:16:09.399Z,93082.76
2019-05-06T10:18:42.240Z,93078.79
2019-05-06T10:21:15.351Z,93090.66
2019-05-06T10:23:48.191Z,93091.39
2019-05-06T10:26:23.328Z,93085.64
2019-05-06T10:29:07.749Z,93089.58
2019-05-06T10:31:48.470Z,93088.81
2019-05-06T10:34:22.202Z,93088.73
2019-05-06T10:37:11.502Z,93086.11
2019-05-06T10:39:32.349Z,93089.55
2019-05-06T10:42:13.026Z,93093.53
2019-05-06T10:44:46.279Z,93087.44
2019-05-06T10:47:22.510Z,93086.81
2019-05-06T10:49:54.304Z,93092.17
2019-05-06T10:52:28.909Z,93099.36
2019-05-06T10:55:03.398Z,93093.30
2019-05-06T10:57:40.370Z,93096.95
2019-05-06T11:00:12.769Z,93094.28
2019-05-06T11:03:03.450Z,93104.92
2019-05-06T11:05:36.349Z,93097.18
2019-05-06T11:08:09.656Z,93105.08
2019-05-06T11:10:45.429Z,93108.06
2019-05-06T11:13:17.308Z,93105.58
2019-05-06T11:15:52.815Z,93107.80
2019-05-06T11:18:25.010Z,93111.59
2019-05-06T11:20:58.489Z,93115.72
2019-05-06T11:23:33.869Z,93116.03
2019-05-06T11:26:07.409Z,93111.00
2019-05-06T11:28:42.658Z,93122.38
2019-05-06T11:31:33.985Z,93120.26
2019-05-06T11:34:23.916Z,93120.50
2019-05-06T11:37:14.977Z,93119.06
2019-05-06T11:39:49.377Z,93117.38
2019-05-06T11:42:31.002Z,93115.24
2019-05-06T11:44:57.482Z,93116.80
2019-05-06T11:47:32.452Z,93125.97
2019-05-06T11:50:05.729Z,93112.61
2019-05-06T11:52:38.630Z,93123.37
2019-05-06T11:55:12.633Z,93129.73
2019-05-06T11:57:47.989Z,93133.41
2019-05-06T12:00:23.938Z,93130.17
2019-05-06T12:02:57.065Z,93134.45
2019-05-06T12:05:32.878Z,93136.12
2019-05-06T12:08:08.161Z,93132.97
2019-05-06T12:10:39.709Z,93130.70
2019-05-06T12:13:12.675Z,93126.98
2019-05-06T12:15:45.537Z,93131.68
2019-05-06T12:18:18.969Z,93126.00
2019-05-06T12:20:52.723Z,93137.61
2019-05-06T12:23:25.955Z,93133.69
2019-05-06T12:25:58.842Z,93133.97
2019-05-06T12:28:32.651Z,93138.97
2019-05-06T12:31:06.237Z,93140.06
2019-05-06T12:33:42.713Z,93136.09
2019-05-06T12:36:17.612Z,93139.78
2019-05-06T12:39:08.150Z,93147.28
2019-05-06T12:41:43.258Z,93141.11
2019-05-06T12:44:16.118Z,93142.84
2019-05-06T12:47:09.263Z,93139.59
2019-05-06T12:49:42.728Z,93136.25
2019-05-06T12:52:18.209Z,93135.16
2019-05-06T12:54:54.096Z,93143.28
2019-05-06T12:57:25.752Z,93141.96
2019-05-06T12:59:58.652Z,93155.72
2019-05-06T13:02:32.851Z,93150.94
2019-05-06T13:05:05.932Z,93147.58
2019-05-06T13:07:43.538Z,93143.69
2019-05-06T13:10:16.957Z,93143.17
2019-05-06T13:12:53.893Z,93147.80
2019-05-06T13:15:26.869Z,93146.54
2019-05-06T13:17:59.920Z,93146.41
2019-05-06T13:20:35.071Z,93150.27
2019-05-06T13:23:20.674Z,93159.14
2019-05-06T13:25:48.231Z,93158.88
2019-05-06T13:28:23.343Z,93153.02
2019-05-06T13:30:56.310Z,93165.17
2019-05-06T13:33:34.481Z,93163.57
2019-05-06T13:36:07.894Z,93164.18
2019-05-06T13:38:42.637Z,93163.22
2019-05-06T13:41:15.354Z,93165.43
2019-05-06T13:43:56.248Z,93164.37
2019-05-06T13:46:32.911Z,93174.31
2019-05-06T13:49:04.958Z,93170.49
2019-05-06T13:51:42.985Z,93161.77
2019-05-06T13:54:16.301Z,93174.99
2019-05-06T13:56:49.234Z,93172.45
2019-05-06T13:59:22.628Z,93171.72
2019-05-06T14:02:09.287Z,93161.13
2019-05-06T14:04:44.373Z,93162.47
2019-05-06T14:07:17.410Z,93166.88
2019-05-06T14:09:53.016Z,93166.88
2019-05-06T14:12:25.310Z,93178.77
2019-05-06T14:14:58.209Z,93170.47
2019-05-06T14:17:32.740Z,93174.16
2019-05-06T14:20:05.737Z,93178.03
2019-05-06T14:22:38.771Z,93170.44
2019-05-06T14:25:14.809Z,93182.40
2019-05-06T14:27:49.109Z,93183.34
2019-05-06T14:30:39.781Z,93187.91
2019-05-06T14:33:15.564Z,93194.64
2019-05-06T14:35:49.217Z,93198.36
2019-05-06T14:38:24.543Z,93204.30
2019-05-06T14:41:12.857Z,93193.64
2019-05-06T14:43:45.607Z,93199.38
2019-05-06T14:46:18.568Z,93199.23
2019-05-06T14:48:53.491Z,93201.29
2019-05-06T14:51:26.189Z,93197.93
2019-05-06T14:53:59.036Z,93194.55
2019-05-06T14:56:36.340Z,93202.80
2019-05-06T14:59:09.789Z,93209.09
2019-05-06T15:01:45.505Z,93207.25
2019-05-06T15:04:17.557Z,93199.80
2019-05-06T15:06:52.811Z,93201.67
2019-05-06T15:09:24.998Z,93214.47
2019-05-06T15:11:59.249Z,93216.95
2019-05-06T15:14:33.109Z,93217.65
2019-05-06T15:17:06.470Z,93214.23
2019-05-06T15:19:39.377Z,93214.77
2019-05-06T15:22:13.109Z,93211.25
2019-05-06T15:24:46.757Z,93220.09
2019-05-06T15:27:19.749Z,93221.72
2019-05-06T15:29:54.229Z,93222.29
2019-05-06T15:32:28.749Z,93237.88
2019-05-06T15:35:03.076Z,93226.79
2019-05-06T15:37:53.566Z,93227.47
2019-05-06T15:40:33.008Z,93231.50
2019-05-06T15:43:02.396Z,93229.42
2019-05-06T15:45:35.209Z,93232.83
2019-05-06T15:48:08.277Z,93233.05
2019-05-06T15:50:45.076Z,93234.83
2019-05-06T15:53:16.236Z,93234.70
2019-05-06T15:55:49.127Z,93222.08
2019-05-06T15:58:22.877Z,93227.34
2019-05-06T16:00:55.989Z,93236.17
2019-05-06T16:03:29.062Z,93234.18
2019-05-06T16:06:02.070Z,93241.36
2019-05-06T16:08:35.221Z,93235.22
2019-05-06T16:11:08.049Z,93238.55
2019-05-06T16:13:42.137Z,93241.10
2019-05-06T16:16:15.781Z,93236.89
2019-05-06T16:18:48.812Z,93237.20
2019-05-06T16:21:22.999Z,93237.20
2019-05-06T16:24:04.168Z,93248.16
2019-05-06T16:26:36.970Z,93234.55
2019-05-06T16:29:10.009Z,93247.36
2019-05-06T16:31:42.789Z,93243.91
2019-05-06T16:34:15.749Z,93250.33
2019-05-06T16:36:48.649Z,93257.63
2019-05-06T16:39:23.047Z,93254.61
2019-05-06T16:41:56.330Z,93247.55
2019-05-06T16:44:29.369Z,93252.95
2019-05-06T16:47:03.056Z,93262.38
2019-05-06T16:49:36.889Z,93266.19
2019-05-06T16:52:09.928Z,93261.20
2019-05-06T16:54:43.833Z,93275.53
2019-05-06T16:57:18.372Z,93264.52
2019-05-06T16:59:52.222Z,93263.14
2019-05-06T17:02:28.650Z,93263.23
2019-05-06T17:05:04.196Z,93264.25
2019-05-06T17:07:37.232Z,93264.14
2019-05-06T17:10:11.834Z,93272.38
2019-05-06T17:12:45.109Z,93268.25
2019-05-06T17:15:18.030Z,93271.91
2019-05-06T17:17:52.953Z,93272.65
2019-05-06T17:20:25.612Z,93279.47
2019-05-06T17:22:58.537Z,93287.20
2019-05-06T17:25:32.964Z,93287.18
2019-05-06T17:28:24.609Z,93286.51
2019-05-06T17:30:57.397Z,93280.65
2019-05-06T17:33:42.782Z,93280.87
2019-05-06T17:36:17.588Z,93286.45
2019-05-06T17:38:52.563Z,93297.41
2019-05-06T17:41:30.795Z,93291.84
2019-05-06T17:44:02.852Z,93298.14
2019-05-06T17:46:37.870Z,93301.31
2019-05-06T17:49:24.530Z,93310.78
2019-05-06T17:52:04.998Z,93305.34
2019-05-06T17:54:37.868Z,93299.78
2019-05-06T17:57:12.281Z,93305.09
2019-05-06T17:59:45.349Z,93306.02
2019-05-06T18:02:22.948Z,93307.92
2019-05-06T18:04:55.870Z,93307.48
2019-05-06T18:07:28.903Z,93317.19
2019-05-06T18:10:03.079Z,93315.55
2019-05-06T18:12:37.135Z,93318.52
2019-05-06T18:15:10.549Z,93326.37
2019-05-06T18:17:43.400Z,93330.17
2019-05-06T18:20:16.309Z,93330.46
2019-05-06T18:22:49.189Z,93340.70
2019-05-06T18:25:23.112Z,93341.84
2019-05-06T18:27:56.209Z,93335.94
2019-05-06T18:30:33.695Z,93352.13
2019-05-06T18:33:03.654Z,93357.34
2019-05-06T18:35:37.001Z,93363.19
2019-05-06T18:38:10.071Z,93367.34
2019-05-06T18:40:42.874Z,93369.13
2019-05-06T18:43:16.470Z,93377.23
2019-05-06T18:45:49.349Z,93383.36
2019-05-06T18:48:22.677Z,93384.98
2019-05-06T18:50:55.549Z,93390.35
2019-05-06T18:53:28.352Z,93388.10
2019-05-06T18:56:03.104Z,93400.20
2019-05-06T18:58:35.814Z,93400.83
2019-05-06T19:01:08.821Z,93405.48
2019-05-06T19:03:49.691Z,93396.70
2019-05-06T19:06:23.295Z,93409.20
2019-05-06T19:09:02.592Z,93419.63
2019-05-06T19:11:35.933Z,93424.70
2019-05-06T19:14:08.804Z,93425.44
2019-05-06T19:16:49.950Z,93428.86
2019-05-06T19:19:16.537Z,93426.47
2019-05-06T19:21:49.365Z,93431.56
2019-05-06T19:24:22.751Z,93431.94
2019-05-06T19:26:55.878Z,93432.09
2019-05-06T19:29:28.707Z,93432.98
2019-05-06T19:32:03.145Z,93437.84
2019-05-06T19:34:36.321Z,93440.19
2019-05-06T19:37:09.134Z,93437.22
2019-05-06T19:39:43.128Z,93434.10
2019-05-06T19:42:16.187Z,93453.32
2019-05-06T19:44:49.231Z,93444.05
2019-05-06T19:47:22.133Z,93446.92
2019-05-06T19:49:55.157Z,93449.36
2019-05-06T19:52:28.051Z,93452.13
2019-05-06T19:55:03.141Z,93447.86
2019-05-06T19:57:35.410Z,93455.00
2019-05-06T20:00:08.315Z,93445.72
2019-05-06T20:02:42.962Z,93454.19
2019-05-06T20:05:17.265Z,93461.30
2019-05-06T20:07:52.129Z,93458.52
2019-05-06T20:10:29.844Z,93454.45
2019-05-06T20:13:05.306Z,93458.12
2019-05-06T20:15:39.467Z,93462.34
2019-05-06T20:18:12.185Z,93462.47
2019-05-06T20:20:45.265Z,93453.13
2019-05-06T20:23:18.333Z,93454.55
2019-05-06T20:25:51.976Z,93459.71
2019-05-06T20:28:25.186Z,93459.36
2019-05-06T20:30:58.056Z,93471.17
2019-05-06T20:33:32.678Z,93465.89
2019-05-06T20:36:05.447Z,93462.71
2019-05-06T20:38:38.188Z,93472.98
2019-05-06T20:41:12.585Z,93475.27
2019-05-06T20:43:45.695Z,93470.70
2019-05-06T20:46:18.567Z,93469.15
2019-05-06T20:48:52.963Z,93463.83
2019-05-06T20:51:26.447Z,93469.50
2019-05-06T20:53:59.327Z,93478.17
2019-05-06T20:56:32.788Z,93474.08
2019-05-06T20:59:05.909Z,93476.31
2019-05-06T21:01:38.765Z,93479.78
2019-05-06T21:04:13.035Z,93489.00
2019-05-06T21:06:46.167Z,93488.56
2019-05-06T21:09:19.045Z,93477.48
2019-05-06T21:11:52.782Z,93486.89
2019-05-06T21:14:25.973Z,93495.03
2019-05-06T21:16:59.165Z,93491.67
2019-05-06T21:19:33.175Z,93493.55
2019-05-06T21:22:06.625Z,93318.73
2019-05-06T21:24:39.592Z,93499.03
2019-05-06T21:27:13.585Z,93498.50
2019-05-06T21:29:46.306Z,93502.91
2019-05-06T21:32:19.165Z,93496.64
2019-05-06T21:34:52.548Z,93497.39
2019-05-06T21:37:25.666Z,93501.97
2019-05-06T21:40:02.572Z,93506.39
2019-05-06T21:42:36.006Z,93490.03
2019-05-06T21:45:12.612Z,93499.98
2019-05-06T21:47:46.457Z,93497.02
2019-05-06T21:50:22.839Z,93493.33
2019-05-06T21:52:56.674Z,93499.22
2019-05-06T21:55:29.445Z,93495.72
2019-05-06T21:58:02.495Z,93497.59
2019-05-06T22:00:43.308Z,93494.92
2019-05-06T22:03:15.765Z,93499.94
2019-05-06T22:05:48.885Z,93497.67
2019-05-06T22:08:23.599Z,93500.40
2019-05-06T22:11:00.096Z,93506.02
2019-05-06T22:13:33.320Z,93504.56
2019-05-06T22:16:05.867Z,93499.92
2019-05-06T22:18:39.006Z,93510.98
2019-05-06T22:21:14.466Z,93505.34
2019-05-06T22:23:58.165Z,93497.94
2019-05-06T22:26:32.468Z,93504.00
2019-05-06T22:29:05.795Z,93505.47
2019-05-06T22:31:39.205Z,93499.27
2019-05-06T22:34:13.409Z,93497.09
2019-05-06T22:36:46.705Z,93493.27
2019-05-06T22:39:19.525Z,93493.09
2019-05-06T22:41:52.986Z,93497.20
2019-05-06T22:44:25.991Z,93490.94
2019-05-06T22:46:58.885Z,93490.09
2019-05-06T22:49:32.139Z,93487.42
2019-05-06T22:52:05.385Z,93484.05
2019-05-06T22:54:38.325Z,93495.23
2019-05-06T22:57:12.060Z,93489.95
2019-05-06T22:59:45.253Z,93489.40
2019-05-06T23:02:19.845Z,93488.09
2019-05-06T23:04:54.327Z,93493.46
2019-05-06T23:07:27.195Z,93495.01
2019-05-06T23:10:00.167Z,93493.00
2019-05-06T23:12:33.103Z,93498.84
2019-05-06T23:15:06.285Z,93502.13
2019-05-06T23:17:39.265Z,93492.09
2019-05-06T23:20:12.425Z,93500.25
2019-05-06T23:22:45.365Z,93500.36
2019-05-06T23:25:18.786Z,93499.73
2019-05-06T23:27:52.974Z,93500.17
2019-05-06T23:30:26.065Z,93506.87
2019-05-06T23:32:59.092Z,93501.89
2019-05-06T23:35:31.885Z,93503.72
2019-05-06T23:38:04.766Z,93504.92
2019-05-06T23:40:39.165Z,93496.95
2019-05-06T23:43:12.624Z,93504.30
2019-05-06T23:45:46.017Z,93500.37
2019-05-06T23:48:19.309Z,93500.48
2019-05-06T23:50:52.349Z,93502.61
2019-05-06T23:53:25.429Z,93507.72
2019-05-06T23:55:59.516Z,93504.92
2019-05-06T23:58:32.676Z,93510.52
